sensor_id;sensor_type;location;lat;lon;timestamp;pressure;altitude;pressure_sealevel;temperature;humidity
35224;BME280;21367;51.930;8.112;2022-07-17T00:00:41;102047.28;;;13.98;65.13
35224;BME280;21367;51.930;8.112;2022-07-17T00:05:48;102050.34;;;13.91;65.53
35224;BME280;21367;51.930;8.112;2022-07-17T00:10:52;102054.84;;;13.77;66.57
35224;BME280;21367;51.930;8.112;2022-07-17T00:15:55;102051.06;;;13.71;67.81
35224;BME280;21367;51.930;8.112;2022-07-17T00:21:02;102040.56;;;13.68;67.53
35224;BME280;21367;51.930;8.112;2022-07-17T00:26:06;102043.91;;;13.49;68.34
35224;BME280;21367;51.930;8.112;2022-07-17T00:31:09;102040.75;;;13.54;68.53
35224;BME280;21367;51.930;8.112;2022-07-17T00:36:16;102047.63;;;13.54;67.98
35224;BME280;21367;51.930;8.112;2022-07-17T00:41:19;102042.72;;;13.42;68.22
35224;BME280;21367;51.930;8.112;2022-07-17T00:46:27;102054.47;;;13.20;68.43
35224;BME280;21367;51.930;8.112;2022-07-17T00:51:34;102056.16;;;13.20;69.02
35224;BME280;21367;51.930;8.112;2022-07-17T00:56:40;102049.38;;;13.06;69.31
35224;BME280;21367;51.930;8.112;2022-07-17T01:01:44;102051.53;;;12.98;69.85
35224;BME280;21367;51.930;8.112;2022-07-17T01:06:50;102056.72;;;12.98;69.49
35224;BME280;21367;51.930;8.112;2022-07-17T01:11:54;102056.34;;;12.76;69.39
35224;BME280;21367;51.930;8.112;2022-07-17T01:16:58;102061.19;;;12.69;69.73
35224;BME280;21367;51.930;8.112;2022-07-17T01:22:04;102058.78;;;12.58;70.21
35224;BME280;21367;51.930;8.112;2022-07-17T01:27:08;102060.50;;;12.57;70.35
35224;BME280;21367;51.930;8.112;2022-07-17T01:32:12;102063.63;;;12.52;70.69
35224;BME280;21367;51.930;8.112;2022-07-17T01:37:18;102068.97;;;12.40;71.08
35224;BME280;21367;51.930;8.112;2022-07-17T01:42:25;102053.31;;;12.37;70.84
35224;BME280;21367;51.930;8.112;2022-07-17T01:47:29;102065.25;;;12.35;71.41
35224;BME280;21367;51.930;8.112;2022-07-17T01:52:38;102060.88;;;12.19;71.72
35224;BME280;21367;51.930;8.112;2022-07-17T01:57:42;102058.94;;;12.15;71.56
35224;BME280;21367;51.930;8.112;2022-07-17T02:02:46;102056.91;;;12.09;71.73
35224;BME280;21367;51.930;8.112;2022-07-17T02:07:53;102048.81;;;12.03;72.20
35224;BME280;21367;51.930;8.112;2022-07-17T02:12:56;102061.34;;;11.97;72.53
35224;BME280;21367;51.930;8.112;2022-07-17T02:18:00;102056.00;;;11.94;72.32
35224;BME280;21367;51.930;8.112;2022-07-17T02:23:06;102054.69;;;11.86;72.65
35224;BME280;21367;51.930;8.112;2022-07-17T02:28:10;102050.22;;;11.83;72.70
35224;BME280;21367;51.930;8.112;2022-07-17T02:33:14;102054.81;;;11.74;72.96
35224;BME280;21367;51.930;8.112;2022-07-17T02:38:20;102057.50;;;11.75;73.24
35224;BME280;21367;51.930;8.112;2022-07-17T02:43:24;102053.81;;;11.72;73.64
35224;BME280;21367;51.930;8.112;2022-07-17T02:48:28;102064.13;;;11.57;73.79
35224;BME280;21367;51.930;8.112;2022-07-17T02:53:34;102081.16;;;11.55;74.80
35224;BME280;21367;51.930;8.112;2022-07-17T02:58:38;102072.75;;;11.57;75.37
35224;BME280;21367;51.930;8.112;2022-07-17T03:03:42;102065.84;;;11.43;75.34
35224;BME280;21367;51.930;8.112;2022-07-17T03:08:48;102070.75;;;11.39;75.11
35224;BME280;21367;51.930;8.112;2022-07-17T03:13:51;102075.53;;;11.32;75.58
35224;BME280;21367;51.930;8.112;2022-07-17T03:18:55;102075.16;;;11.26;76.28
35224;BME280;21367;51.930;8.112;2022-07-17T03:24:02;102074.13;;;11.09;76.03
35224;BME280;21367;51.930;8.112;2022-07-17T03:29:05;102077.78;;;11.00;76.23
35224;BME280;21367;51.930;8.112;2022-07-17T03:34:10;102085.31;;;10.97;75.66
35224;BME280;21367;51.930;8.112;2022-07-17T03:39:16;102079.59;;;10.74;76.18
35224;BME280;21367;51.930;8.112;2022-07-17T03:44:19;102075.47;;;10.76;76.26
35224;BME280;21367;51.930;8.112;2022-07-17T03:49:23;102079.13;;;10.67;76.51
35224;BME280;21367;51.930;8.112;2022-07-17T03:54:29;102091.31;;;10.69;76.41
35224;BME280;21367;51.930;8.112;2022-07-17T03:59:33;102104.44;;;10.74;76.25
35224;BME280;21367;51.930;8.112;2022-07-17T04:04:37;102109.38;;;10.71;76.22
35224;BME280;21367;51.930;8.112;2022-07-17T04:09:43;102101.97;;;10.62;77.20
35224;BME280;21367;51.930;8.112;2022-07-17T04:14:46;102090.78;;;10.75;77.05
35224;BME280;21367;51.930;8.112;2022-07-17T04:19:50;102093.13;;;10.98;76.37
35224;BME280;21367;51.930;8.112;2022-07-17T04:24:56;102087.88;;;10.97;76.44
35224;BME280;21367;51.930;8.112;2022-07-17T04:30:00;102070.50;;;11.21;75.90
35224;BME280;21367;51.930;8.112;2022-07-17T04:35:05;102068.63;;;11.46;75.53
35224;BME280;21367;51.930;8.112;2022-07-17T04:40:12;102079.22;;;11.66;74.82
35224;BME280;21367;51.930;8.112;2022-07-17T04:45:16;102098.97;;;11.80;74.18
35224;BME280;21367;51.930;8.112;2022-07-17T04:50:20;102115.44;;;11.97;74.45
35224;BME280;21367;51.930;8.112;2022-07-17T04:55:27;102122.19;;;11.52;76.08
35224;BME280;21367;51.930;8.112;2022-07-17T05:00:31;102133.09;;;11.48;77.61
35224;BME280;21367;51.930;8.112;2022-07-17T05:05:35;102120.59;;;11.97;75.74
35224;BME280;21367;51.930;8.112;2022-07-17T05:10:43;102129.59;;;11.89;75.76
35224;BME280;21367;51.930;8.112;2022-07-17T05:15:47;102134.41;;;12.27;75.10
35224;BME280;21367;51.930;8.112;2022-07-17T05:20:51;102120.00;;;12.16;75.55
35224;BME280;21367;51.930;8.112;2022-07-17T05:25:57;102128.31;;;12.56;74.57
35224;BME280;21367;51.930;8.112;2022-07-17T05:31:01;102113.50;;;12.37;75.12
35224;BME280;21367;51.930;8.112;2022-07-17T05:36:05;102106.88;;;12.72;74.04
35224;BME280;21367;51.930;8.112;2022-07-17T05:41:12;102099.88;;;13.01;73.10
35224;BME280;21367;51.930;8.112;2022-07-17T05:46:16;102113.03;;;12.90;73.59
35224;BME280;21367;51.930;8.112;2022-07-17T05:51:19;102101.66;;;13.18;72.66
35224;BME280;21367;51.930;8.112;2022-07-17T05:56:25;102101.00;;;13.22;72.47
35224;BME280;21367;51.930;8.112;2022-07-17T06:01:29;102109.72;;;13.24;71.91
35224;BME280;21367;51.930;8.112;2022-07-17T06:06:33;102101.22;;;13.41;71.57
35224;BME280;21367;51.930;8.112;2022-07-17T06:11:40;102117.19;;;13.67;71.23
35224;BME280;21367;51.930;8.112;2022-07-17T06:16:43;102128.34;;;13.82;70.54
35224;BME280;21367;51.930;8.112;2022-07-17T06:21:47;102117.72;;;14.28;68.77
35224;BME280;21367;51.930;8.112;2022-07-17T06:26:53;102114.19;;;14.10;69.75
35224;BME280;21367;51.930;8.112;2022-07-17T06:31:57;102118.25;;;14.39;68.87
35224;BME280;21367;51.930;8.112;2022-07-17T06:37:00;102124.13;;;14.53;67.93
35224;BME280;21367;51.930;8.112;2022-07-17T06:42:06;102112.44;;;14.79;66.66
35224;BME280;21367;51.930;8.112;2022-07-17T06:47:11;102124.78;;;15.22;65.23
35224;BME280;21367;51.930;8.112;2022-07-17T06:52:14;102120.88;;;15.30;63.62
35224;BME280;21367;51.930;8.112;2022-07-17T06:57:20;102115.97;;;15.75;62.85
35224;BME280;21367;51.930;8.112;2022-07-17T07:02:24;102108.41;;;15.80;63.44
35224;BME280;21367;51.930;8.112;2022-07-17T07:07:28;102097.13;;;15.99;62.15
35224;BME280;21367;51.930;8.112;2022-07-17T07:12:34;102108.94;;;16.13;60.99
35224;BME280;21367;51.930;8.112;2022-07-17T07:17:37;102102.03;;;16.13;61.54
35224;BME280;21367;51.930;8.112;2022-07-17T07:22:41;102106.16;;;16.29;60.70
35224;BME280;21367;51.930;8.112;2022-07-17T07:27:48;102094.19;;;16.54;59.86
35224;BME280;21367;51.930;8.112;2022-07-17T07:32:52;102087.03;;;16.92;59.50
35224;BME280;21367;51.930;8.112;2022-07-17T07:37:55;102091.78;;;17.02;58.11
35224;BME280;21367;51.930;8.112;2022-07-17T07:43:02;102101.00;;;16.95;57.42
35224;BME280;21367;51.930;8.112;2022-07-17T07:48:06;102096.72;;;17.18;57.26
35224;BME280;21367;51.930;8.112;2022-07-17T07:53:09;102110.91;;;17.76;56.06
35224;BME280;21367;51.930;8.112;2022-07-17T07:58:16;102127.75;;;17.86;54.57
35224;BME280;21367;51.930;8.112;2022-07-17T08:03:19;102141.81;;;17.91;54.19
35224;BME280;21367;51.930;8.112;2022-07-17T08:08:23;102130.13;;;18.03;54.61
35224;BME280;21367;51.930;8.112;2022-07-17T08:13:30;102124.97;;;18.31;54.35
35224;BME280;21367;51.930;8.112;2022-07-17T08:18:34;102132.38;;;18.18;54.19
35224;BME280;21367;51.930;8.112;2022-07-17T08:23:37;102130.25;;;18.59;52.79
35224;BME280;21367;51.930;8.112;2022-07-17T08:28:44;102126.78;;;18.60;51.92
35224;BME280;21367;51.930;8.112;2022-07-17T08:33:48;102119.84;;;19.16;51.39
35224;BME280;21367;51.930;8.112;2022-07-17T08:38:52;102126.56;;;19.37;49.99
35224;BME280;21367;51.930;8.112;2022-07-17T08:43:58;102136.25;;;19.42;49.58
35224;BME280;21367;51.930;8.112;2022-07-17T08:49:03;102138.59;;;19.94;49.41
35224;BME280;21367;51.930;8.112;2022-07-17T08:54:07;102140.13;;;20.20;47.86
35224;BME280;21367;51.930;8.112;2022-07-17T08:59:13;102143.78;;;20.27;48.06
35224;BME280;21367;51.930;8.112;2022-07-17T09:04:17;102141.06;;;20.57;46.10
35224;BME280;21367;51.930;8.112;2022-07-17T09:09:21;102136.16;;;20.71;44.74
35224;BME280;21367;51.930;8.112;2022-07-17T09:14:36;102130.63;;;21.80;43.54
35224;BME280;21367;51.930;8.112;2022-07-17T09:19:43;102123.34;;;21.63;42.65
35224;BME280;21367;51.930;8.112;2022-07-17T09:24:49;102125.38;;;22.84;41.30
35224;BME280;21367;51.930;8.112;2022-07-17T09:29:57;102132.09;;;22.64;39.28
35224;BME280;21367;51.930;8.112;2022-07-17T09:35:04;102116.91;;;23.71;36.86
35224;BME280;21367;51.930;8.112;2022-07-17T09:40:09;102114.38;;;23.80;37.33
35224;BME280;21367;51.930;8.112;2022-07-17T09:45:36;102118.66;;;24.71;36.07
35224;BME280;21367;51.930;8.112;2022-07-17T09:50:40;102118.53;;;24.56;36.46
35224;BME280;21367;51.930;8.112;2022-07-17T09:55:44;102119.63;;;24.85;35.33
35224;BME280;21367;51.930;8.112;2022-07-17T10:00:50;102116.50;;;23.36;37.25
35224;BME280;21367;51.930;8.112;2022-07-17T10:05:54;102110.19;;;25.32;33.55
35224;BME280;21367;51.930;8.112;2022-07-17T10:10:58;102111.38;;;24.38;36.14
35224;BME280;21367;51.930;8.112;2022-07-17T10:16:05;102111.44;;;24.42;36.62
35224;BME280;21367;51.930;8.112;2022-07-17T10:21:14;102114.75;;;25.88;32.56
35224;BME280;21367;51.930;8.112;2022-07-17T10:26:30;102106.78;;;26.89;30.84
35224;BME280;21367;51.930;8.112;2022-07-17T10:31:50;102098.81;;;25.39;33.69
35224;BME280;21367;51.930;8.112;2022-07-17T10:36:54;102095.44;;;26.15;33.31
35224;BME280;21367;51.930;8.112;2022-07-17T10:41:59;102098.06;;;26.40;31.72
35224;BME280;21367;51.930;8.112;2022-07-17T10:47:05;102107.53;;;25.26;33.83
35224;BME280;21367;51.930;8.112;2022-07-17T10:52:09;102113.88;;;25.94;33.25
35224;BME280;21367;51.930;8.112;2022-07-17T10:57:13;102104.22;;;26.36;31.99
35224;BME280;21367;51.930;8.112;2022-07-17T11:02:27;102104.84;;;27.34;30.42
35224;BME280;21367;51.930;8.112;2022-07-17T11:07:31;102105.97;;;26.23;31.29
35224;BME280;21367;51.930;8.112;2022-07-17T11:12:34;102095.31;;;26.93;30.89
35224;BME280;21367;51.930;8.112;2022-07-17T11:17:44;102091.38;;;27.80;30.11
35224;BME280;21367;51.930;8.112;2022-07-17T11:22:56;102090.25;;;28.97;28.19
35224;BME280;21367;51.930;8.112;2022-07-17T11:28:00;102077.69;;;30.32;26.20
35224;BME280;21367;51.930;8.112;2022-07-17T11:33:14;102078.47;;;30.83;24.88
35224;BME280;21367;51.930;8.112;2022-07-17T11:38:24;102074.81;;;29.91;25.49
35224;BME280;21367;51.930;8.112;2022-07-17T11:43:28;102077.06;;;30.14;25.25
35224;BME280;21367;51.930;8.112;2022-07-17T11:48:34;102074.84;;;29.29;27.47
35224;BME280;21367;51.930;8.112;2022-07-17T11:53:39;102071.03;;;30.99;23.78
35224;BME280;21367;51.930;8.112;2022-07-17T11:58:45;102070.56;;;31.61;23.28
35224;BME280;21367;51.930;8.112;2022-07-17T12:03:59;102073.88;;;28.66;27.10
35224;BME280;21367;51.930;8.112;2022-07-17T12:09:03;102068.69;;;30.40;24.29
35224;BME280;21367;51.930;8.112;2022-07-17T12:14:07;102066.25;;;32.27;22.04
35224;BME280;21367;51.930;8.112;2022-07-17T12:19:15;102063.97;;;32.13;22.21
35224;BME280;21367;51.930;8.112;2022-07-17T12:24:21;102056.75;;;31.83;20.89
35224;BME280;21367;51.930;8.112;2022-07-17T12:29:27;102047.81;;;31.85;21.66
35224;BME280;21367;51.930;8.112;2022-07-17T12:34:34;102044.63;;;32.72;19.88
35224;BME280;21367;51.930;8.112;2022-07-17T12:39:38;102040.81;;;33.10;19.14
35224;BME280;21367;51.930;8.112;2022-07-17T12:44:42;102036.25;;;33.42;19.20
35224;BME280;21367;51.930;8.112;2022-07-17T12:49:48;102032.97;;;33.62;17.45
35224;BME280;21367;51.930;8.112;2022-07-17T12:54:52;102035.91;;;31.66;17.54
35224;BME280;21367;51.930;8.112;2022-07-17T12:59:56;102031.25;;;31.74;19.00
35224;BME280;21367;51.930;8.112;2022-07-17T13:05:03;102018.47;;;31.15;20.30
35224;BME280;21367;51.930;8.112;2022-07-17T13:10:07;102020.56;;;31.40;19.31
35224;BME280;21367;51.930;8.112;2022-07-17T13:15:11;102017.16;;;32.06;19.67
35224;BME280;21367;51.930;8.112;2022-07-17T13:20:19;102000.56;;;31.61;19.87
35224;BME280;21367;51.930;8.112;2022-07-17T13:25:30;102005.09;;;32.25;20.21
35224;BME280;21367;51.930;8.112;2022-07-17T13:30:33;102000.13;;;32.13;20.32
35224;BME280;21367;51.930;8.112;2022-07-17T13:35:40;101996.22;;;34.70;17.97
35224;BME280;21367;51.930;8.112;2022-07-17T13:40:45;101990.75;;;32.62;19.17
35224;BME280;21367;51.930;8.112;2022-07-17T13:45:50;101990.06;;;33.95;17.18
35224;BME280;21367;51.930;8.112;2022-07-17T13:50:56;101999.53;;;34.28;17.01
35224;BME280;21367;51.930;8.112;2022-07-17T13:56:00;101991.56;;;34.97;16.24
35224;BME280;21367;51.930;8.112;2022-07-17T14:01:03;101990.56;;;34.78;17.01
35224;BME280;21367;51.930;8.112;2022-07-17T14:06:10;101990.91;;;34.69;17.16
35224;BME280;21367;51.930;8.112;2022-07-17T14:11:14;101980.22;;;34.45;17.23
35224;BME280;21367;51.930;8.112;2022-07-17T14:16:18;101981.06;;;34.93;17.56
35224;BME280;21367;51.930;8.112;2022-07-17T14:21:25;101975.31;;;34.58;16.98
35224;BME280;21367;51.930;8.112;2022-07-17T14:26:29;101969.31;;;35.63;15.80
35224;BME280;21367;51.930;8.112;2022-07-17T14:31:32;101959.19;;;34.83;17.05
35224;BME280;21367;51.930;8.112;2022-07-17T14:36:39;101951.81;;;35.34;16.19
35224;BME280;21367;51.930;8.112;2022-07-17T14:41:43;101950.66;;;35.82;15.35
35224;BME280;21367;51.930;8.112;2022-07-17T14:46:47;101941.28;;;35.92;16.17
35224;BME280;21367;51.930;8.112;2022-07-17T14:51:54;101936.72;;;36.14;16.20
35224;BME280;21367;51.930;8.112;2022-07-17T14:56:57;101931.88;;;36.42;15.83
35224;BME280;21367;51.930;8.112;2022-07-17T15:02:01;101928.66;;;35.55;17.06
35224;BME280;21367;51.930;8.112;2022-07-17T15:07:07;101932.31;;;36.13;16.40
35224;BME280;21367;51.930;8.112;2022-07-17T15:12:11;101922.47;;;35.54;16.15
35224;BME280;21367;51.930;8.112;2022-07-17T15:17:14;101918.25;;;33.10;17.37
35224;BME280;21367;51.930;8.112;2022-07-17T15:22:21;101915.84;;;34.06;17.22
35224;BME280;21367;51.930;8.112;2022-07-17T15:27:25;101927.88;;;34.87;16.50
35224;BME280;21367;51.930;8.112;2022-07-17T15:32:28;101917.28;;;35.07;17.01
35224;BME280;21367;51.930;8.112;2022-07-17T15:37:36;101918.47;;;35.83;15.22
35224;BME280;21367;51.930;8.112;2022-07-17T15:42:40;101919.78;;;35.94;15.34
35224;BME280;21367;51.930;8.112;2022-07-17T15:47:44;101903.13;;;33.64;17.22
35224;BME280;21367;51.930;8.112;2022-07-17T15:52:50;101901.22;;;36.30;15.31
35224;BME280;21367;51.930;8.112;2022-07-17T15:57:54;101901.31;;;36.83;15.40
35224;BME280;21367;51.930;8.112;2022-07-17T16:02:58;101905.91;;;35.65;16.33
35224;BME280;21367;51.930;8.112;2022-07-17T16:08:05;101900.13;;;35.95;16.11
35224;BME280;21367;51.930;8.112;2022-07-17T16:13:08;101891.47;;;35.69;16.74
35224;BME280;21367;51.930;8.112;2022-07-17T16:18:13;101880.34;;;35.37;16.68
35224;BME280;21367;51.930;8.112;2022-07-17T16:23:19;101875.84;;;35.79;16.73
35224;BME280;21367;51.930;8.112;2022-07-17T16:28:23;101876.13;;;34.89;16.59
35224;BME280;21367;51.930;8.112;2022-07-17T16:33:27;101874.53;;;34.63;17.22
35224;BME280;21367;51.930;8.112;2022-07-17T16:38:34;101866.19;;;33.53;18.92
35224;BME280;21367;51.930;8.112;2022-07-17T16:43:37;101853.00;;;32.95;19.22
35224;BME280;21367;51.930;8.112;2022-07-17T16:48:41;101850.84;;;32.80;20.11
35224;BME280;21367;51.930;8.112;2022-07-17T16:53:48;101847.66;;;32.97;19.21
35224;BME280;21367;51.930;8.112;2022-07-17T16:58:52;101834.84;;;33.33;19.41
35224;BME280;21367;51.930;8.112;2022-07-17T17:03:55;101833.00;;;33.10;19.03
35224;BME280;21367;51.930;8.112;2022-07-17T17:09:02;101834.00;;;34.06;18.41
35224;BME280;21367;51.930;8.112;2022-07-17T17:14:06;101817.75;;;32.87;19.03
35224;BME280;21367;51.930;8.112;2022-07-17T17:19:10;101815.53;;;33.53;19.29
35224;BME280;21367;51.930;8.112;2022-07-17T17:24:16;101811.19;;;33.98;18.91
35224;BME280;21367;51.930;8.112;2022-07-17T17:29:19;101821.78;;;32.16;20.82
35224;BME280;21367;51.930;8.112;2022-07-17T17:34:23;101812.56;;;29.34;23.12
35224;BME280;21367;51.930;8.112;2022-07-17T17:39:29;101812.56;;;30.61;22.41
35224;BME280;21367;51.930;8.112;2022-07-17T17:44:33;101820.91;;;28.55;22.20
35224;BME280;21367;51.930;8.112;2022-07-17T17:49:37;101818.84;;;28.74;22.52
35224;BME280;21367;51.930;8.112;2022-07-17T17:54:43;101819.72;;;28.73;23.13
35224;BME280;21367;51.930;8.112;2022-07-17T17:59:47;101815.09;;;28.27;23.44
35224;BME280;21367;51.930;8.112;2022-07-17T18:04:51;101803.16;;;27.97;24.17
35224;BME280;21367;51.930;8.112;2022-07-17T18:09:58;101817.84;;;27.42;24.53
35224;BME280;21367;51.930;8.112;2022-07-17T18:15:02;101818.28;;;26.90;25.45
35224;BME280;21367;51.930;8.112;2022-07-17T18:20:08;101825.41;;;26.76;26.04
35224;BME280;21367;51.930;8.112;2022-07-17T18:25:15;101828.22;;;26.47;26.84
35224;BME280;21367;51.930;8.112;2022-07-17T18:30:19;101825.59;;;26.44;25.52
35224;BME280;21367;51.930;8.112;2022-07-17T18:35:24;101834.59;;;26.01;27.71
35224;BME280;21367;51.930;8.112;2022-07-17T18:40:30;101832.94;;;25.51;27.88
35224;BME280;21367;51.930;8.112;2022-07-17T18:45:36;101844.28;;;25.90;27.55
35224;BME280;21367;51.930;8.112;2022-07-17T18:50:40;101844.31;;;24.78;29.42
35224;BME280;21367;51.930;8.112;2022-07-17T18:55:48;101838.25;;;25.18;31.14
35224;BME280;21367;51.930;8.112;2022-07-17T19:00:51;101845.16;;;24.76;32.21
35224;BME280;21367;51.930;8.112;2022-07-17T19:05:55;101849.25;;;23.94;32.44
35224;BME280;21367;51.930;8.112;2022-07-17T19:11:02;101852.84;;;24.11;33.13
35224;BME280;21367;51.930;8.112;2022-07-17T19:16:06;101851.88;;;23.92;33.63
35224;BME280;21367;51.930;8.112;2022-07-17T19:21:09;101854.44;;;23.85;33.96
35224;BME280;21367;51.930;8.112;2022-07-17T19:26:16;101855.69;;;23.15;35.06
35224;BME280;21367;51.930;8.112;2022-07-17T19:31:20;101849.25;;;22.87;36.09
35224;BME280;21367;51.930;8.112;2022-07-17T19:36:24;101859.03;;;22.99;36.74
35224;BME280;21367;51.930;8.112;2022-07-17T19:41:30;101863.03;;;22.63;36.79
35224;BME280;21367;51.930;8.112;2022-07-17T19:46:34;101868.91;;;22.44;38.02
35224;BME280;21367;51.930;8.112;2022-07-17T19:51:38;101867.47;;;22.02;38.85
35224;BME280;21367;51.930;8.112;2022-07-17T19:56:44;101864.84;;;22.02;38.80
35224;BME280;21367;51.930;8.112;2022-07-17T20:01:48;101877.50;;;21.71;38.94
35224;BME280;21367;51.930;8.112;2022-07-17T20:06:52;101870.31;;;21.58;39.62
35224;BME280;21367;51.930;8.112;2022-07-17T20:11:59;101879.72;;;21.46;39.80
35224;BME280;21367;51.930;8.112;2022-07-17T20:17:02;101879.47;;;21.33;40.29
35224;BME280;21367;51.930;8.112;2022-07-17T20:22:06;101884.44;;;21.16;40.93
35224;BME280;21367;51.930;8.112;2022-07-17T20:27:13;101879.47;;;20.83;41.24
35224;BME280;21367;51.930;8.112;2022-07-17T20:32:17;101878.59;;;20.84;41.22
35224;BME280;21367;51.930;8.112;2022-07-17T20:37:20;101887.00;;;20.67;41.93
35224;BME280;21367;51.930;8.112;2022-07-17T20:42:27;101887.34;;;20.42;42.24
35224;BME280;21367;51.930;8.112;2022-07-17T20:47:30;101884.41;;;20.26;42.89
35224;BME280;21367;51.930;8.112;2022-07-17T20:52:35;101874.66;;;20.18;43.80
35224;BME280;21367;51.930;8.112;2022-07-17T20:57:41;101875.97;;;19.97;44.92
35224;BME280;21367;51.930;8.112;2022-07-17T21:02:45;101867.13;;;19.92;44.31
35224;BME280;21367;51.930;8.112;2022-07-17T21:07:51;101866.94;;;19.83;44.66
35224;BME280;21367;51.930;8.112;2022-07-17T21:12:57;101868.34;;;19.69;45.45
35224;BME280;21367;51.930;8.112;2022-07-17T21:18:00;101868.75;;;19.51;46.01
35224;BME280;21367;51.930;8.112;2022-07-17T21:23:04;101864.75;;;19.29;47.04
35224;BME280;21367;51.930;8.112;2022-07-17T21:28:11;101859.47;;;19.26;47.14
35224;BME280;21367;51.930;8.112;2022-07-17T21:33:15;101861.81;;;19.15;47.60
35224;BME280;21367;51.930;8.112;2022-07-17T21:38:18;101869.16;;;18.98;48.82
35224;BME280;21367;51.930;8.112;2022-07-17T21:43:25;101863.81;;;18.92;49.58
35224;BME280;21367;51.930;8.112;2022-07-17T21:48:29;101867.78;;;18.78;50.18
35224;BME280;21367;51.930;8.112;2022-07-17T21:53:32;101874.44;;;18.68;51.38
35224;BME280;21367;51.930;8.112;2022-07-17T21:58:39;101878.41;;;18.55;52.88
35224;BME280;21367;51.930;8.112;2022-07-17T22:03:43;101878.16;;;18.46;52.37
35224;BME280;21367;51.930;8.112;2022-07-17T22:08:48;101870.50;;;18.22;52.42
35224;BME280;21367;51.930;8.112;2022-07-17T22:13:55;101856.81;;;18.29;52.65
35224;BME280;21367;51.930;8.112;2022-07-17T22:18:59;101854.47;;;18.08;52.49
35224;BME280;21367;51.930;8.112;2022-07-17T22:24:04;101854.22;;;17.99;53.00
35224;BME280;21367;51.930;8.112;2022-07-17T22:29:10;101854.31;;;17.75;53.78
35224;BME280;21367;51.930;8.112;2022-07-17T22:34:14;101851.06;;;17.80;53.34
35224;BME280;21367;51.930;8.112;2022-07-17T22:39:18;101854.16;;;17.70;53.12
35224;BME280;21367;51.930;8.112;2022-07-17T22:44:24;101840.44;;;17.47;53.82
35224;BME280;21367;51.930;8.112;2022-07-17T22:49:28;101837.81;;;17.46;53.97
35224;BME280;21367;51.930;8.112;2022-07-17T22:54:32;101848.50;;;17.02;55.70
35224;BME280;21367;51.930;8.112;2022-07-17T22:59:39;101852.00;;;17.04;56.60
35224;BME280;21367;51.930;8.112;2022-07-17T23:04:43;101850.97;;;16.99;56.35
35224;BME280;21367;51.930;8.112;2022-07-17T23:09:47;101850.09;;;16.51;57.46
35224;BME280;21367;51.930;8.112;2022-07-17T23:14:53;101862.91;;;16.70;56.84
35224;BME280;21367;51.930;8.112;2022-07-17T23:19:57;101862.59;;;16.85;56.69
35224;BME280;21367;51.930;8.112;2022-07-17T23:25:05;101865.94;;;16.81;56.75
35224;BME280;21367;51.930;8.112;2022-07-17T23:30:11;101879.19;;;16.66;57.35
35224;BME280;21367;51.930;8.112;2022-07-17T23:35:15;101885.56;;;16.50;57.47
35224;BME280;21367;51.930;8.112;2022-07-17T23:40:19;101897.25;;;16.16;57.59
35224;BME280;21367;51.930;8.112;2022-07-17T23:45:25;101889.38;;;16.36;57.00
35224;BME280;21367;51.930;8.112;2022-07-17T23:50:29;101886.63;;;16.10;57.62
35224;BME280;21367;51.930;8.112;2022-07-17T23:55:33;101882.31;;;15.88;58.53
